Terminal Aerodrome Forecast
Issued by NWS Twin Cities, MN

Home | Current Version | Previous Version | Text Only | Print | Product List | Glossary On
Versions: 1 2 3 4 5 6 7 8 9 10 11 12 13 14 15 16 17 18 19 20 21 22 23 24
000
FTUS43 KMPX 171700 RRA
TAFEAU
TAF
KEAU 171743Z 1718/1818 13008KT P6SM OVC019
     FM172100 14004KT P6SM SCT020 BKN040
     FM180000 11004KT P6SM VCSH SCT020 OVC060
     FM180600 14005KT 6SM BR OVC008
     FM181600 19007KT P6SM SCT015 BKN040=

USA.gov is the U.S. government's official web portal to all federal, state and local government web resources and services.